San Francisco, CA

10:56 AM PDT on March 24, 2017 (GMT -0700)
Hayes Valley | | Change Station

Elev 121 ft 37.78 °N, 122.43 °W | Updated 15 seconds ago

Rain
Rain
53.2 °F
Feels Like 53.2 °F
N
2.7
Wind Variable Wind from SSE

Today
High -- | Low -- °F
--% Chance of Precip.
Yesterday
High -- | Low -- °F
Precip. -- in
Pressure 30.14 in
Visibility 1.8 miles
Clouds Few 300 ft
Overcast 1900 ft
Dew Point 50 °F
Humidity 90%
Rainfall 0.51 in
Snow Depth Not available.
7:06 AM 7:25 PM
Waning Crescent, 14% visible
METAR KSFO 241656Z 14014KT 1 3/4SM RA FEW003 OVC019 12/09 A3013 RMK AO2 SLP204 P0012 T01170089
Pressure 30.14 in
Visibility 1.8 miles
Clouds Few 300 ft
Overcast 1900 ft
Dew Point 50 °F
Humidity 90%
Rainfall 0.51 in
Snow Depth Not available.
7:06 AM 7:25 PM
Waning Crescent, 14% visible
METAR KSFO 241656Z 14014KT 1 3/4SM RA FEW003 OVC019 12/09 A3013 RMK AO2 SLP204 P0012 T01170089

Get Severe Weather Alerts

Thanks for signing up!

Be on the lookout for a verification email in your inbox.

You'll start receiving the daily forecast at 8 AM.

×

10-Day Weather Forecast

Almanac

Astronomy

Mar. 24, 2017 Rise Set
Actual Time
Civil Twilight
Nautical Twilight
Astronomical Twilight
Moon
Length of Visible Light
Length of Day
Tomorrow will be .
, % of the Moon is Illuminated

Today's Extremes

State Highs State Lows

Community

WunderPhotos

Upload Photos

1,962,540 photos uploaded!

WunderBlog® & News

Nearby

Air Quality

  Air Quality AQ Index Pollutant
Not available.

Snow Depth

Station Depth Elevation

Earthquake Activity

City Distance Mag. Time & Date
Minimum magnitude displayed is 2.5.

Earthquake Activity

City Distance Mag. Time & Date
Minimum magnitude displayed is 2.5.

Coastal Water Temperatures

Place Temperature

Stations

Nearby Weather Stations

Station Location Temp. Windchill Dew Point Humidity Wind Precip. Elev Updated Type
                   

Watches & Warnings

There are currently no watches in effect.